sensor_id;sensor_type;location;lat;lon;timestamp;P1;durP1;ratioP1;P2;durP2;ratioP2
65755;SDS011;69208;47.502;18.940;2023-12-14T00:00:05;3.45;;;2.83;;
65755;SDS011;69208;47.502;18.940;2023-12-14T00:01:10;3.85;;;2.80;;
65755;SDS011;69208;47.502;18.940;2023-12-14T00:02:13;3.87;;;2.92;;
65755;SDS011;69208;47.502;18.940;2023-12-14T00:03:17;3.45;;;3.00;;
65755;SDS011;69208;47.502;18.940;2023-12-14T00:04:20;4.53;;;3.15;;
65755;SDS011;69208;47.502;18.940;2023-12-14T00:05:23;4.82;;;2.83;;
65755;SDS011;69208;47.502;18.940;2023-12-14T00:06:27;4.65;;;3.28;;
65755;SDS011;69208;47.502;18.940;2023-12-14T00:07:30;4.22;;;3.20;;
65755;SDS011;69208;47.502;18.940;2023-12-14T00:08:33;4.00;;;3.12;;
65755;SDS011;69208;47.502;18.940;2023-12-14T00:09:37;4.00;;;3.10;;
65755;SDS011;69208;47.502;18.940;2023-12-14T00:10:40;5.00;;;3.53;;
65755;SDS011;69208;47.502;18.940;2023-12-14T00:11:43;4.32;;;3.30;;
65755;SDS011;69208;47.502;18.940;2023-12-14T00:12:46;4.85;;;3.50;;
65755;SDS011;69208;47.502;18.940;2023-12-14T00:13:52;4.47;;;3.30;;
65755;SDS011;69208;47.502;18.940;2023-12-14T00:14:55;5.22;;;3.60;;
65755;SDS011;69208;47.502;18.940;2023-12-14T00:15:58;4.15;;;3.20;;
65755;SDS011;69208;47.502;18.940;2023-12-14T00:17:02;5.43;;;3.40;;
65755;SDS011;69208;47.502;18.940;2023-12-14T00:18:05;4.12;;;3.20;;
65755;SDS011;69208;47.502;18.940;2023-12-14T00:19:09;9.88;;;3.12;;
65755;SDS011;69208;47.502;18.940;2023-12-14T00:20:12;4.47;;;3.53;;
65755;SDS011;69208;47.502;18.940;2023-12-14T00:21:17;5.22;;;3.53;;
65755;SDS011;69208;47.502;18.940;2023-12-14T00:22:20;4.05;;;3.03;;
65755;SDS011;69208;47.502;18.940;2023-12-14T00:23:23;4.15;;;3.20;;
65755;SDS011;69208;47.502;18.940;2023-12-14T00:24:26;4.03;;;3.40;;
65755;SDS011;69208;47.502;18.940;2023-12-14T00:25:30;5.22;;;3.45;;
65755;SDS011;69208;47.502;18.940;2023-12-14T00:26:33;4.18;;;3.05;;
65755;SDS011;69208;47.502;18.940;2023-12-14T00:27:36;3.62;;;2.90;;
65755;SDS011;69208;47.502;18.940;2023-12-14T00:28:39;4.10;;;3.20;;
65755;SDS011;69208;47.502;18.940;2023-12-14T00:29:43;3.85;;;3.10;;
65755;SDS011;69208;47.502;18.940;2023-12-14T00:30:46;4.28;;;3.10;;
65755;SDS011;69208;47.502;18.940;2023-12-14T00:31:49;4.12;;;3.20;;
65755;SDS011;69208;47.502;18.940;2023-12-14T00:32:53;4.55;;;3.40;;
65755;SDS011;69208;47.502;18.940;2023-12-14T00:33:56;5.57;;;3.58;;
65755;SDS011;69208;47.502;18.940;2023-12-14T00:34:59;4.70;;;3.10;;
65755;SDS011;69208;47.502;18.940;2023-12-14T00:36:03;3.87;;;2.58;;
65755;SDS011;69208;47.502;18.940;2023-12-14T00:37:06;3.70;;;2.80;;
65755;SDS011;69208;47.502;18.940;2023-12-14T00:38:09;3.50;;;3.12;;
65755;SDS011;69208;47.502;18.940;2023-12-14T00:39:12;3.92;;;2.97;;
65755;SDS011;69208;47.502;18.940;2023-12-14T00:40:16;3.87;;;2.80;;
65755;SDS011;69208;47.502;18.940;2023-12-14T00:41:19;3.42;;;2.70;;
65755;SDS011;69208;47.502;18.940;2023-12-14T00:42:22;4.10;;;3.10;;
65755;SDS011;69208;47.502;18.940;2023-12-14T00:43:25;5.37;;;3.60;;
65755;SDS011;69208;47.502;18.940;2023-12-14T00:44:29;3.83;;;3.10;;
65755;SDS011;69208;47.502;18.940;2023-12-14T00:45:32;4.20;;;3.35;;
65755;SDS011;69208;47.502;18.940;2023-12-14T00:46:35;3.85;;;3.08;;
65755;SDS011;69208;47.502;18.940;2023-12-14T00:47:39;4.68;;;3.08;;
65755;SDS011;69208;47.502;18.940;2023-12-14T00:48:42;3.78;;;3.03;;
65755;SDS011;69208;47.502;18.940;2023-12-14T00:49:45;4.68;;;3.17;;
65755;SDS011;69208;47.502;18.940;2023-12-14T00:50:49;4.32;;;3.10;;
65755;SDS011;69208;47.502;18.940;2023-12-14T00:51:52;4.37;;;3.28;;
65755;SDS011;69208;47.502;18.940;2023-12-14T00:52:55;3.55;;;2.97;;
65755;SDS011;69208;47.502;18.940;2023-12-14T00:53:58;3.80;;;2.97;;
65755;SDS011;69208;47.502;18.940;2023-12-14T00:55:02;4.40;;;3.20;;
65755;SDS011;69208;47.502;18.940;2023-12-14T00:56:07;4.95;;;3.45;;
65755;SDS011;69208;47.502;18.940;2023-12-14T00:57:11;4.18;;;3.10;;
65755;SDS011;69208;47.502;18.940;2023-12-14T00:58:14;4.47;;;3.40;;
65755;SDS011;69208;47.502;18.940;2023-12-14T00:59:18;5.07;;;3.62;;
65755;SDS011;69208;47.502;18.940;2023-12-14T01:00:21;4.65;;;3.20;;
65755;SDS011;69208;47.502;18.940;2023-12-14T01:01:24;5.35;;;3.42;;
65755;SDS011;69208;47.502;18.940;2023-12-14T01:02:28;4.68;;;3.10;;
65755;SDS011;69208;47.502;18.940;2023-12-14T01:03:31;4.57;;;3.17;;
65755;SDS011;69208;47.502;18.940;2023-12-14T01:04:35;4.18;;;2.95;;
65755;SDS011;69208;47.502;18.940;2023-12-14T01:05:38;4.43;;;2.80;;
65755;SDS011;69208;47.502;18.940;2023-12-14T01:06:42;4.20;;;3.05;;
65755;SDS011;69208;47.502;18.940;2023-12-14T01:07:45;4.32;;;3.10;;
65755;SDS011;69208;47.502;18.940;2023-12-14T01:08:48;4.20;;;3.25;;
65755;SDS011;69208;47.502;18.940;2023-12-14T01:09:52;4.82;;;3.40;;
65755;SDS011;69208;47.502;18.940;2023-12-14T01:10:55;4.28;;;3.20;;
65755;SDS011;69208;47.502;18.940;2023-12-14T01:11:59;5.65;;;3.30;;
65755;SDS011;69208;47.502;18.940;2023-12-14T01:13:02;4.10;;;3.00;;
65755;SDS011;69208;47.502;18.940;2023-12-14T01:14:06;4.97;;;3.40;;
65755;SDS011;69208;47.502;18.940;2023-12-14T01:15:09;4.93;;;3.50;;
65755;SDS011;69208;47.502;18.940;2023-12-14T01:16:13;4.72;;;3.50;;
65755;SDS011;69208;47.502;18.940;2023-12-14T01:17:16;4.37;;;3.30;;
65755;SDS011;69208;47.502;18.940;2023-12-14T01:18:19;5.10;;;3.53;;
65755;SDS011;69208;47.502;18.940;2023-12-14T01:19:22;4.97;;;3.62;;
65755;SDS011;69208;47.502;18.940;2023-12-14T01:20:28;6.12;;;4.15;;
65755;SDS011;69208;47.502;18.940;2023-12-14T01:21:32;6.05;;;4.30;;
65755;SDS011;69208;47.502;18.940;2023-12-14T01:22:35;5.57;;;4.03;;
65755;SDS011;69208;47.502;18.940;2023-12-14T01:23:39;5.85;;;4.10;;
65755;SDS011;69208;47.502;18.940;2023-12-14T01:24:42;8.00;;;4.50;;
65755;SDS011;69208;47.502;18.940;2023-12-14T01:25:45;6.20;;;4.70;;
65755;SDS011;69208;47.502;18.940;2023-12-14T01:26:48;7.20;;;5.03;;
65755;SDS011;69208;47.502;18.940;2023-12-14T01:27:52;6.50;;;4.40;;
65755;SDS011;69208;47.502;18.940;2023-12-14T01:28:55;6.05;;;4.62;;
65755;SDS011;69208;47.502;18.940;2023-12-14T01:29:58;8.30;;;5.60;;
65755;SDS011;69208;47.502;18.940;2023-12-14T01:31:02;6.65;;;4.62;;
65755;SDS011;69208;47.502;18.940;2023-12-14T01:32:05;7.28;;;5.00;;
65755;SDS011;69208;47.502;18.940;2023-12-14T01:33:08;6.05;;;4.35;;
65755;SDS011;69208;47.502;18.940;2023-12-14T01:34:12;6.53;;;4.53;;
65755;SDS011;69208;47.502;18.940;2023-12-14T01:35:15;7.50;;;4.85;;
65755;SDS011;69208;47.502;18.940;2023-12-14T01:36:22;7.65;;;4.87;;
65755;SDS011;69208;47.502;18.940;2023-12-14T01:37:26;8.18;;;5.00;;
65755;SDS011;69208;47.502;18.940;2023-12-14T01:38:29;7.30;;;4.90;;
65755;SDS011;69208;47.502;18.940;2023-12-14T01:39:32;6.82;;;4.57;;
65755;SDS011;69208;47.502;18.940;2023-12-14T01:40:35;7.93;;;5.10;;
65755;SDS011;69208;47.502;18.940;2023-12-14T01:41:38;5.78;;;4.43;;
65755;SDS011;69208;47.502;18.940;2023-12-14T01:42:41;8.57;;;4.30;;
65755;SDS011;69208;47.502;18.940;2023-12-14T01:43:44;6.35;;;4.18;;
65755;SDS011;69208;47.502;18.940;2023-12-14T01:44:48;6.12;;;4.12;;
65755;SDS011;69208;47.502;18.940;2023-12-14T01:45:51;6.53;;;4.37;;
65755;SDS011;69208;47.502;18.940;2023-12-14T01:46:54;5.43;;;3.67;;
65755;SDS011;69208;47.502;18.940;2023-12-14T01:47:58;5.60;;;4.15;;
65755;SDS011;69208;47.502;18.940;2023-12-14T01:49:01;4.87;;;3.50;;
65755;SDS011;69208;47.502;18.940;2023-12-14T01:50:05;5.18;;;3.80;;
65755;SDS011;69208;47.502;18.940;2023-12-14T01:51:09;5.25;;;3.72;;
65755;SDS011;69208;47.502;18.940;2023-12-14T01:52:12;5.00;;;3.30;;
65755;SDS011;69208;47.502;18.940;2023-12-14T01:53:15;4.93;;;3.53;;
65755;SDS011;69208;47.502;18.940;2023-12-14T01:54:18;5.62;;;3.50;;
65755;SDS011;69208;47.502;18.940;2023-12-14T01:55:21;4.70;;;3.50;;
65755;SDS011;69208;47.502;18.940;2023-12-14T01:56:24;4.90;;;3.35;;
65755;SDS011;69208;47.502;18.940;2023-12-14T01:57:28;4.50;;;3.50;;
65755;SDS011;69208;47.502;18.940;2023-12-14T01:58:31;6.05;;;3.42;;
65755;SDS011;69208;47.502;18.940;2023-12-14T01:59:34;4.80;;;3.45;;
65755;SDS011;69208;47.502;18.940;2023-12-14T02:00:48;5.75;;;3.67;;
65755;SDS011;69208;47.502;18.940;2023-12-14T02:01:58;4.82;;;3.20;;
65755;SDS011;69208;47.502;18.940;2023-12-14T02:03:02;4.47;;;3.35;;
65755;SDS011;69208;47.502;18.940;2023-12-14T02:04:05;5.60;;;3.55;;
65755;SDS011;69208;47.502;18.940;2023-12-14T02:05:12;4.32;;;3.40;;
65755;SDS011;69208;47.502;18.940;2023-12-14T02:06:15;5.05;;;3.75;;
65755;SDS011;69208;47.502;18.940;2023-12-14T02:07:19;4.50;;;3.42;;
65755;SDS011;69208;47.502;18.940;2023-12-14T02:08:22;5.45;;;3.60;;
65755;SDS011;69208;47.502;18.940;2023-12-14T02:09:25;4.82;;;3.53;;
65755;SDS011;69208;47.502;18.940;2023-12-14T02:10:28;4.97;;;3.53;;
65755;SDS011;69208;47.502;18.940;2023-12-14T02:11:31;5.37;;;4.15;;
65755;SDS011;69208;47.502;18.940;2023-12-14T02:12:34;6.75;;;4.47;;
65755;SDS011;69208;47.502;18.940;2023-12-14T02:13:38;5.62;;;4.28;;
65755;SDS011;69208;47.502;18.940;2023-12-14T02:14:41;5.97;;;4.10;;
65755;SDS011;69208;47.502;18.940;2023-12-14T02:15:44;7.40;;;5.00;;
65755;SDS011;69208;47.502;18.940;2023-12-14T02:16:47;7.82;;;5.12;;
65755;SDS011;69208;47.502;18.940;2023-12-14T02:17:49;6.53;;;4.47;;
65755;SDS011;69208;47.502;18.940;2023-12-14T02:18:53;7.20;;;4.82;;
65755;SDS011;69208;47.502;18.940;2023-12-14T02:19:57;7.30;;;4.70;;
65755;SDS011;69208;47.502;18.940;2023-12-14T02:21:01;5.97;;;4.35;;
65755;SDS011;69208;47.502;18.940;2023-12-14T02:22:04;7.60;;;5.43;;
65755;SDS011;69208;47.502;18.940;2023-12-14T02:23:07;6.97;;;4.53;;
65755;SDS011;69208;47.502;18.940;2023-12-14T02:24:10;7.43;;;5.22;;
65755;SDS011;69208;47.502;18.940;2023-12-14T02:25:13;7.00;;;5.20;;
65755;SDS011;69208;47.502;18.940;2023-12-14T02:26:16;7.70;;;5.55;;
65755;SDS011;69208;47.502;18.940;2023-12-14T02:27:19;7.60;;;5.22;;
65755;SDS011;69208;47.502;18.940;2023-12-14T02:28:22;8.27;;;5.43;;
65755;SDS011;69208;47.502;18.940;2023-12-14T02:29:25;7.70;;;5.68;;
65755;SDS011;69208;47.502;18.940;2023-12-14T02:30:28;9.48;;;6.00;;
65755;SDS011;69208;47.502;18.940;2023-12-14T02:31:32;8.68;;;6.60;;
65755;SDS011;69208;47.502;18.940;2023-12-14T02:32:34;8.85;;;6.62;;
65755;SDS011;69208;47.502;18.940;2023-12-14T02:33:38;8.52;;;5.78;;
65755;SDS011;69208;47.502;18.940;2023-12-14T02:34:41;9.63;;;6.87;;
65755;SDS011;69208;47.502;18.940;2023-12-14T02:35:44;9.75;;;6.65;;
65755;SDS011;69208;47.502;18.940;2023-12-14T02:36:47;10.48;;;7.00;;
65755;SDS011;69208;47.502;18.940;2023-12-14T02:37:50;10.93;;;7.47;;
65755;SDS011;69208;47.502;18.940;2023-12-14T02:38:53;10.68;;;7.30;;
65755;SDS011;69208;47.502;18.940;2023-12-14T02:39:56;12.32;;;7.65;;
65755;SDS011;69208;47.502;18.940;2023-12-14T02:40:59;10.63;;;7.40;;
65755;SDS011;69208;47.502;18.940;2023-12-14T02:42:02;10.90;;;7.75;;
65755;SDS011;69208;47.502;18.940;2023-12-14T02:43:05;10.18;;;7.62;;
65755;SDS011;69208;47.502;18.940;2023-12-14T02:44:08;10.50;;;7.80;;
65755;SDS011;69208;47.502;18.940;2023-12-14T02:45:10;11.00;;;7.60;;
65755;SDS011;69208;47.502;18.940;2023-12-14T02:46:14;13.23;;;8.45;;
65755;SDS011;69208;47.502;18.940;2023-12-14T02:47:18;13.15;;;8.48;;
65755;SDS011;69208;47.502;18.940;2023-12-14T02:48:21;10.60;;;8.10;;
65755;SDS011;69208;47.502;18.940;2023-12-14T02:49:24;12.20;;;8.48;;
65755;SDS011;69208;47.502;18.940;2023-12-14T02:50:27;10.63;;;8.15;;
65755;SDS011;69208;47.502;18.940;2023-12-14T02:51:30;10.98;;;7.85;;
65755;SDS011;69208;47.502;18.940;2023-12-14T02:52:33;14.77;;;8.38;;
65755;SDS011;69208;47.502;18.940;2023-12-14T02:53:37;13.70;;;8.18;;
65755;SDS011;69208;47.502;18.940;2023-12-14T02:54:40;10.05;;;7.60;;
65755;SDS011;69208;47.502;18.940;2023-12-14T02:55:43;12.02;;;7.57;;
65755;SDS011;69208;47.502;18.940;2023-12-14T02:56:46;13.27;;;8.52;;
65755;SDS011;69208;47.502;18.940;2023-12-14T02:57:49;11.90;;;8.55;;
65755;SDS011;69208;47.502;18.940;2023-12-14T02:58:52;11.65;;;8.10;;
65755;SDS011;69208;47.502;18.940;2023-12-14T02:59:56;10.95;;;8.50;;
65755;SDS011;69208;47.502;18.940;2023-12-14T03:00:59;11.43;;;8.73;;
65755;SDS011;69208;47.502;18.940;2023-12-14T03:02:02;10.85;;;7.97;;
65755;SDS011;69208;47.502;18.940;2023-12-14T03:03:05;10.90;;;7.80;;
65755;SDS011;69208;47.502;18.940;2023-12-14T03:04:08;10.93;;;7.75;;
65755;SDS011;69208;47.502;18.940;2023-12-14T03:05:11;10.95;;;8.10;;
65755;SDS011;69208;47.502;18.940;2023-12-14T03:06:14;10.80;;;7.43;;
65755;SDS011;69208;47.502;18.940;2023-12-14T03:07:17;11.25;;;8.10;;
65755;SDS011;69208;47.502;18.940;2023-12-14T03:08:21;9.48;;;7.28;;
65755;SDS011;69208;47.502;18.940;2023-12-14T03:09:24;10.77;;;7.97;;
65755;SDS011;69208;47.502;18.940;2023-12-14T03:10:27;9.80;;;7.47;;
65755;SDS011;69208;47.502;18.940;2023-12-14T03:11:30;10.50;;;7.43;;
65755;SDS011;69208;47.502;18.940;2023-12-14T03:12:33;11.80;;;7.22;;
65755;SDS011;69208;47.502;18.940;2023-12-14T03:13:36;8.88;;;6.70;;
65755;SDS011;69208;47.502;18.940;2023-12-14T03:14:40;9.30;;;6.90;;
65755;SDS011;69208;47.502;18.940;2023-12-14T03:15:43;9.73;;;7.50;;
65755;SDS011;69208;47.502;18.940;2023-12-14T03:16:46;9.02;;;6.90;;
65755;SDS011;69208;47.502;18.940;2023-12-14T03:17:51;9.10;;;6.85;;
65755;SDS011;69208;47.502;18.940;2023-12-14T03:18:54;9.70;;;7.25;;
65755;SDS011;69208;47.502;18.940;2023-12-14T03:19:59;7.95;;;5.97;;
65755;SDS011;69208;47.502;18.940;2023-12-14T03:21:02;7.62;;;5.50;;
65755;SDS011;69208;47.502;18.940;2023-12-14T03:22:05;8.80;;;6.15;;
65755;SDS011;69208;47.502;18.940;2023-12-14T03:23:08;7.68;;;5.95;;
65755;SDS011;69208;47.502;18.940;2023-12-14T03:24:11;8.75;;;6.35;;
65755;SDS011;69208;47.502;18.940;2023-12-14T03:25:14;8.05;;;6.22;;
65755;SDS011;69208;47.502;18.940;2023-12-14T03:26:17;7.70;;;5.80;;
65755;SDS011;69208;47.502;18.940;2023-12-14T03:27:20;8.70;;;5.70;;
65755;SDS011;69208;47.502;18.940;2023-12-14T03:28:25;7.93;;;5.90;;
65755;SDS011;69208;47.502;18.940;2023-12-14T03:29:28;8.38;;;6.00;;
65755;SDS011;69208;47.502;18.940;2023-12-14T03:30:31;9.98;;;6.22;;
65755;SDS011;69208;47.502;18.940;2023-12-14T03:31:34;7.57;;;5.62;;
65755;SDS011;69208;47.502;18.940;2023-12-14T03:32:38;7.43;;;5.75;;
65755;SDS011;69208;47.502;18.940;2023-12-14T03:33:42;6.97;;;5.40;;
65755;SDS011;69208;47.502;18.940;2023-12-14T03:34:45;8.00;;;5.93;;
65755;SDS011;69208;47.502;18.940;2023-12-14T03:35:48;7.53;;;5.80;;
65755;SDS011;69208;47.502;18.940;2023-12-14T03:36:51;7.18;;;5.03;;
65755;SDS011;69208;47.502;18.940;2023-12-14T03:37:54;6.78;;;5.28;;
65755;SDS011;69208;47.502;18.940;2023-12-14T03:38:57;7.85;;;5.20;;
65755;SDS011;69208;47.502;18.940;2023-12-14T03:40:00;7.75;;;5.25;;
65755;SDS011;69208;47.502;18.940;2023-12-14T03:41:03;7.55;;;5.45;;
65755;SDS011;69208;47.502;18.940;2023-12-14T03:42:06;8.02;;;5.72;;
65755;SDS011;69208;47.502;18.940;2023-12-14T03:43:09;7.50;;;5.50;;
65755;SDS011;69208;47.502;18.940;2023-12-14T03:44:12;7.22;;;5.37;;
65755;SDS011;69208;47.502;18.940;2023-12-14T03:45:16;7.30;;;5.03;;
65755;SDS011;69208;47.502;18.940;2023-12-14T03:46:18;8.00;;;5.60;;
65755;SDS011;69208;47.502;18.940;2023-12-14T03:47:22;9.43;;;6.20;;
65755;SDS011;69208;47.502;18.940;2023-12-14T03:48:25;9.02;;;6.55;;
65755;SDS011;69208;47.502;18.940;2023-12-14T03:49:28;8.93;;;6.80;;
65755;SDS011;69208;47.502;18.940;2023-12-14T03:50:31;9.02;;;6.70;;
65755;SDS011;69208;47.502;18.940;2023-12-14T03:51:35;10.18;;;7.60;;
65755;SDS011;69208;47.502;18.940;2023-12-14T03:52:38;10.75;;;7.80;;
65755;SDS011;69208;47.502;18.940;2023-12-14T03:53:41;14.05;;;9.10;;
65755;SDS011;69208;47.502;18.940;2023-12-14T03:54:44;13.02;;;9.15;;
65755;SDS011;69208;47.502;18.940;2023-12-14T03:55:47;15.02;;;9.02;;
65755;SDS011;69208;47.502;18.940;2023-12-14T03:56:50;11.85;;;8.90;;
65755;SDS011;69208;47.502;18.940;2023-12-14T03:57:53;16.58;;;8.95;;
65755;SDS011;69208;47.502;18.940;2023-12-14T03:58:56;13.65;;;10.02;;
65755;SDS011;69208;47.502;18.940;2023-12-14T04:00:00;13.27;;;10.10;;
65755;SDS011;69208;47.502;18.940;2023-12-14T04:01:03;14.07;;;9.70;;
65755;SDS011;69208;47.502;18.940;2023-12-14T04:02:06;14.07;;;10.20;;
65755;SDS011;69208;47.502;18.940;2023-12-14T04:03:10;13.00;;;10.10;;
65755;SDS011;69208;47.502;18.940;2023-12-14T04:04:13;14.48;;;10.70;;
65755;SDS011;69208;47.502;18.940;2023-12-14T04:05:16;17.27;;;11.00;;
65755;SDS011;69208;47.502;18.940;2023-12-14T04:06:19;23.90;;;10.98;;
65755;SDS011;69208;47.502;18.940;2023-12-14T04:07:22;21.95;;;11.07;;
65755;SDS011;69208;47.502;18.940;2023-12-14T04:08:25;23.45;;;11.65;;
65755;SDS011;69208;47.502;18.940;2023-12-14T04:09:28;23.12;;;12.52;;
65755;SDS011;69208;47.502;18.940;2023-12-14T04:10:31;16.83;;;12.80;;
65755;SDS011;69208;47.502;18.940;2023-12-14T04:11:34;36.05;;;12.25;;
65755;SDS011;69208;47.502;18.940;2023-12-14T04:12:37;54.25;;;13.23;;
65755;SDS011;69208;47.502;18.940;2023-12-14T04:13:41;22.98;;;11.82;;
65755;SDS011;69208;47.502;18.940;2023-12-14T04:14:43;17.00;;;12.05;;
65755;SDS011;69208;47.502;18.940;2023-12-14T04:15:47;94.55;;;14.07;;
65755;SDS011;69208;47.502;18.940;2023-12-14T04:16:50;90.10;;;13.48;;
65755;SDS011;69208;47.502;18.940;2023-12-14T04:17:53;40.35;;;12.63;;
65755;SDS011;69208;47.502;18.940;2023-12-14T04:18:56;75.68;;;12.52;;
65755;SDS011;69208;47.502;18.940;2023-12-14T04:19:59;66.93;;;13.30;;
65755;SDS011;69208;47.502;18.940;2023-12-14T04:21:03;29.42;;;11.60;;
65755;SDS011;69208;47.502;18.940;2023-12-14T04:22:06;19.08;;;11.60;;
65755;SDS011;69208;47.502;18.940;2023-12-14T04:23:09;19.80;;;11.75;;
65755;SDS011;69208;47.502;18.940;2023-12-14T04:24:13;22.85;;;11.38;;
65755;SDS011;69208;47.502;18.940;2023-12-14T04:25:16;25.12;;;11.60;;
65755;SDS011;69208;47.502;18.940;2023-12-14T04:26:19;25.75;;;12.48;;
65755;SDS011;69208;47.502;18.940;2023-12-14T04:27:22;41.28;;;12.52;;
65755;SDS011;69208;47.502;18.940;2023-12-14T04:28:29;21.15;;;11.43;;
65755;SDS011;69208;47.502;18.940;2023-12-14T04:29:32;26.58;;;10.93;;
65755;SDS011;69208;47.502;18.940;2023-12-14T04:30:35;25.30;;;11.90;;
65755;SDS011;69208;47.502;18.940;2023-12-14T04:31:38;28.92;;;11.45;;
65755;SDS011;69208;47.502;18.940;2023-12-14T04:32:41;15.15;;;11.40;;
65755;SDS011;69208;47.502;18.940;2023-12-14T04:33:44;25.25;;;12.15;;
65755;SDS011;69208;47.502;18.940;2023-12-14T04:34:47;28.80;;;12.13;;
65755;SDS011;69208;47.502;18.940;2023-12-14T04:35:50;37.47;;;12.10;;
65755;SDS011;69208;47.502;18.940;2023-12-14T04:36:53;57.28;;;12.00;;
65755;SDS011;69208;47.502;18.940;2023-12-14T04:38:00;25.73;;;11.95;;
65755;SDS011;69208;47.502;18.940;2023-12-14T04:39:03;23.40;;;11.18;;
65755;SDS011;69208;47.502;18.940;2023-12-14T04:40:06;32.13;;;11.10;;
65755;SDS011;69208;47.502;18.940;2023-12-14T04:41:10;34.60;;;12.13;;
65755;SDS011;69208;47.502;18.940;2023-12-14T04:42:13;20.85;;;11.40;;
65755;SDS011;69208;47.502;18.940;2023-12-14T04:43:16;16.85;;;11.50;;
65755;SDS011;69208;47.502;18.940;2023-12-14T04:44:19;17.60;;;11.55;;
65755;SDS011;69208;47.502;18.940;2023-12-14T04:45:23;20.77;;;11.68;;
65755;SDS011;69208;47.502;18.940;2023-12-14T04:46:26;16.05;;;11.73;;
65755;SDS011;69208;47.502;18.940;2023-12-14T04:47:29;18.37;;;12.27;;
65755;SDS011;69208;47.502;18.940;2023-12-14T04:48:32;19.15;;;11.30;;
65755;SDS011;69208;47.502;18.940;2023-12-14T04:49:35;16.23;;;11.18;;
65755;SDS011;69208;47.502;18.940;2023-12-14T04:50:38;17.35;;;10.88;;
65755;SDS011;69208;47.502;18.940;2023-12-14T04:51:42;16.95;;;11.35;;
65755;SDS011;69208;47.502;18.940;2023-12-14T04:52:45;15.25;;;11.30;;
65755;SDS011;69208;47.502;18.940;2023-12-14T04:53:48;17.52;;;11.07;;
65755;SDS011;69208;47.502;18.940;2023-12-14T04:54:50;28.55;;;12.27;;
65755;SDS011;69208;47.502;18.940;2023-12-14T04:55:53;18.70;;;11.57;;
65755;SDS011;69208;47.502;18.940;2023-12-14T04:56:56;71.40;;;13.25;;
65755;SDS011;69208;47.502;18.940;2023-12-14T04:57:59;18.33;;;11.38;;
65755;SDS011;69208;47.502;18.940;2023-12-14T04:59:02;22.77;;;11.45;;
65755;SDS011;69208;47.502;18.940;2023-12-14T05:00:05;33.92;;;11.12;;
65755;SDS011;69208;47.502;18.940;2023-12-14T05:01:10;24.92;;;11.70;;
65755;SDS011;69208;47.502;18.940;2023-12-14T05:02:14;16.08;;;10.73;;
65755;SDS011;69208;47.502;18.940;2023-12-14T05:03:17;15.32;;;10.82;;
65755;SDS011;69208;47.502;18.940;2023-12-14T05:04:20;16.90;;;11.75;;
65755;SDS011;69208;47.502;18.940;2023-12-14T05:05:23;19.08;;;11.32;;
65755;SDS011;69208;47.502;18.940;2023-12-14T05:06:26;14.68;;;10.27;;
65755;SDS011;69208;47.502;18.940;2023-12-14T05:07:29;15.68;;;11.70;;
65755;SDS011;69208;47.502;18.940;2023-12-14T05:08:32;18.45;;;11.43;;
65755;SDS011;69208;47.502;18.940;2023-12-14T05:09:35;14.68;;;11.12;;
65755;SDS011;69208;47.502;18.940;2023-12-14T05:10:38;16.15;;;11.60;;
65755;SDS011;69208;47.502;18.940;2023-12-14T05:11:43;18.17;;;11.73;;
65755;SDS011;69208;47.502;18.940;2023-12-14T05:12:46;19.20;;;12.07;;
65755;SDS011;69208;47.502;18.940;2023-12-14T05:13:48;16.52;;;10.82;;
65755;SDS011;69208;47.502;18.940;2023-12-14T05:14:52;17.60;;;11.38;;
65755;SDS011;69208;47.502;18.940;2023-12-14T05:15:55;15.65;;;11.43;;
65755;SDS011;69208;47.502;18.940;2023-12-14T05:17:00;14.15;;;10.65;;
65755;SDS011;69208;47.502;18.940;2023-12-14T05:18:03;17.83;;;12.50;;
65755;SDS011;69208;47.502;18.940;2023-12-14T05:19:06;16.90;;;11.38;;
65755;SDS011;69208;47.502;18.940;2023-12-14T05:20:09;15.40;;;10.75;;
65755;SDS011;69208;47.502;18.940;2023-12-14T05:21:16;14.05;;;10.32;;
65755;SDS011;69208;47.502;18.940;2023-12-14T05:22:20;15.40;;;10.90;;
65755;SDS011;69208;47.502;18.940;2023-12-14T05:23:23;14.13;;;10.23;;
65755;SDS011;69208;47.502;18.940;2023-12-14T05:24:29;16.98;;;10.88;;
65755;SDS011;69208;47.502;18.940;2023-12-14T05:25:32;14.73;;;10.38;;
65755;SDS011;69208;47.502;18.940;2023-12-14T05:26:35;15.63;;;11.18;;
65755;SDS011;69208;47.502;18.940;2023-12-14T05:27:38;15.07;;;10.93;;
65755;SDS011;69208;47.502;18.940;2023-12-14T05:28:41;19.60;;;10.82;;
65755;SDS011;69208;47.502;18.940;2023-12-14T05:29:44;15.20;;;11.45;;
65755;SDS011;69208;47.502;18.940;2023-12-14T05:30:48;12.82;;;9.98;;
65755;SDS011;69208;47.502;18.940;2023-12-14T05:31:51;16.27;;;11.60;;
65755;SDS011;69208;47.502;18.940;2023-12-14T05:32:54;15.55;;;11.40;;
65755;SDS011;69208;47.502;18.940;2023-12-14T05:33:58;16.15;;;11.85;;
65755;SDS011;69208;47.502;18.940;2023-12-14T05:35:01;14.95;;;11.55;;
65755;SDS011;69208;47.502;18.940;2023-12-14T05:36:04;14.90;;;11.52;;
65755;SDS011;69208;47.502;18.940;2023-12-14T05:37:11;14.90;;;11.23;;
65755;SDS011;69208;47.502;18.940;2023-12-14T05:38:14;15.02;;;11.60;;
65755;SDS011;69208;47.502;18.940;2023-12-14T05:39:17;17.45;;;12.37;;
65755;SDS011;69208;47.502;18.940;2023-12-14T05:40:20;15.52;;;12.35;;
65755;SDS011;69208;47.502;18.940;2023-12-14T05:41:23;16.98;;;12.37;;
65755;SDS011;69208;47.502;18.940;2023-12-14T05:42:26;15.80;;;11.95;;
65755;SDS011;69208;47.502;18.940;2023-12-14T05:43:29;18.42;;;12.45;;
65755;SDS011;69208;47.502;18.940;2023-12-14T05:44:32;18.80;;;13.00;;
65755;SDS011;69208;47.502;18.940;2023-12-14T05:45:35;17.45;;;12.68;;
65755;SDS011;69208;47.502;18.940;2023-12-14T05:46:37;17.60;;;12.23;;
65755;SDS011;69208;47.502;18.940;2023-12-14T05:47:40;15.32;;;11.85;;
65755;SDS011;69208;47.502;18.940;2023-12-14T05:48:44;16.73;;;12.10;;
65755;SDS011;69208;47.502;18.940;2023-12-14T05:49:47;16.58;;;11.60;;
65755;SDS011;69208;47.502;18.940;2023-12-14T05:50:51;16.60;;;11.50;;
65755;SDS011;69208;47.502;18.940;2023-12-14T05:51:54;15.80;;;11.60;;
65755;SDS011;69208;47.502;18.940;2023-12-14T05:52:57;15.05;;;11.00;;
65755;SDS011;69208;47.502;18.940;2023-12-14T05:54:00;16.05;;;11.73;;
65755;SDS011;69208;47.502;18.940;2023-12-14T05:55:04;17.27;;;12.15;;
65755;SDS011;69208;47.502;18.940;2023-12-14T05:56:07;15.50;;;11.43;;
65755;SDS011;69208;47.502;18.940;2023-12-14T05:57:11;16.95;;;12.20;;
65755;SDS011;69208;47.502;18.940;2023-12-14T05:58:16;16.08;;;12.20;;
65755;SDS011;69208;47.502;18.940;2023-12-14T05:59:18;15.18;;;11.73;;
65755;SDS011;69208;47.502;18.940;2023-12-14T06:00:22;17.90;;;11.75;;
65755;SDS011;69208;47.502;18.940;2023-12-14T06:01:25;14.70;;;11.75;;
65755;SDS011;69208;47.502;18.940;2023-12-14T06:02:28;15.38;;;12.10;;
65755;SDS011;69208;47.502;18.940;2023-12-14T06:03:31;15.07;;;11.50;;
65755;SDS011;69208;47.502;18.940;2023-12-14T06:04:34;15.45;;;11.75;;
65755;SDS011;69208;47.502;18.940;2023-12-14T06:05:38;17.10;;;11.77;;
65755;SDS011;69208;47.502;18.940;2023-12-14T06:06:41;16.67;;;12.02;;
65755;SDS011;69208;47.502;18.940;2023-12-14T06:07:44;16.58;;;11.63;;
65755;SDS011;69208;47.502;18.940;2023-12-14T06:08:47;16.83;;;12.13;;
65755;SDS011;69208;47.502;18.940;2023-12-14T06:09:51;16.70;;;11.75;;
65755;SDS011;69208;47.502;18.940;2023-12-14T06:10:54;15.93;;;11.82;;